Poruka od N7QME - pregled karte · informacija · telemetrija · vrijeme · osnovni · status · beacons · poruke · bilteni · pretraži · kretanje · Moj račun
Pozivni znak:
Prikazi:

Ucitavanje message paketa...

APRS poruka je spremljena 14 dana. Moguce je pretrazivanje upotrebom zamjenski znakova (*?) iza pocetka oznake.

2021-04-21 04:38:58 EDT: N7QME-2>N7QME: system phv 13.26 bv 13.29 bc 0.80 bp 10.6 tp 1097 rt -8100
2021-04-21 04:50:33 EDT: MTHOOD>N7QME: temps 51.200 71.300 42.100 52.300 369.500 369.300 83.200 337.300
2021-04-21 04:53:12 EDT: N7QME-2>N7QME: system phv 13.29 bv 13.29 bc 0.00 bp 0.0 tp 1098 rt -8099
2021-04-21 04:56:56 EDT: N7QME-2>N7QME: bms B2 13.32 32 0.0 60.6 61.3 0
2021-04-21 04:57:40 EDT: N7QME-2>N7QME: bms B1 13.28 26 0.0 60.4 61.9 0
2021-04-21 05:04:43 EDT: MTHOOD>N7QME: hum 40 10 57 13 255 100 193 215
2021-04-21 05:05:40 EDT: N7QME-2>N7QME: dinghy 01:59:13 p 11.86 v 13.00 s holding
2021-04-21 05:16:35 EDT: N7QME-2>N7QME: bms B2 13.32 29 0.0 60.6 61.3 0
2021-04-21 05:26:17 EDT: N7QME-2>N7QME: system phv 13.30 bv 13.30 bc 0.00 bp 0.0 tp 1098 rt -8099
2021-04-21 05:34:40 EDT: N7QME-2>N7QME: temps g 61 v 62 o .53 e 58 f 39 b 55 w 60 h 56 Stale 4 Low 5 6 8
2021-04-21 05:44:36 EDT: MTHOOD>N7QME: temps 50.900 71.000 41.200 52.000 369.500 369.300 83.200 337.300
2021-04-21 05:52:42 EDT: N7QME-2>N7QME: temps g .61 v 62 o 52 e 58 f 39 b 55 w 60 h 56 Stale 4 Low 5 6 8
2021-04-21 05:56:00 EDT: N7QME-2>N7QME: hum g 48 v 50 o 72. e 59. f 56 b .67 w 59. h 64 Stale 4 Low 5 6 8
2021-04-21 05:58:37 EDT: N7QME-2>N7QME: system phv 13.30 bv 13.30 bc 0.00 bp 0.0 tp 1098 rt -8099
2021-04-21 05:59:18 EDT: MTHOOD>N7QME: hum 40 12 59 14 255 100 193 215
2021-04-21 06:14:35 EDT: N7QME-2>N7QME: Bilge fore 1 0 0 mid 1 0 0 aft 1 0 0
2021-04-21 06:19:02 EDT: N7QME-2>N7QME: hum g 49 v 50. o 74. e 59. f 58. b .67 w 60 h 64 Stale 4 Low 5 6 8
2021-04-21 06:31:20 EDT: N7QME-2>N7QME: system phv 13.30 bv 13.30 bc 0.00 bp 0.0 tp 1098 rt -8099
2021-04-21 06:38:33 EDT: MTHOOD>N7QME: temps 50.500 70.800 40.400 51.900 369.500 369.300 83.200 337.300
2021-04-21 06:39:34 EDT: N7QME-2>N7QME: dinghy 03:30:36 p 11.72 v 12.86 s auto
2021-04-21 06:45:26 EDT: N7QME-2>N7QME: bms B1 13.28 26 0.0 60.4 61.5 0
2021-04-21 06:51:57 EDT: N7QME-14>N7QME: 13.20 95.9 16 9
2021-04-21 06:52:58 EDT: MTHOOD>N7QME: hum 39 13 60 15 255 100 193 215
2021-04-21 06:53:35 EDT: N7QME-2>N7QME: bms B1 13.28 25 0.0 60.3 61.5 0
2021-04-21 07:12:17 EDT: N7QME-2>N7QME: bms B2 13.32 27 0.0 60.3 61.0 0
2021-04-21 07:14:20 EDT: N7QME-2>N7QME: bms B2 13.31 30 0.0 60.3 61.0 0
2021-04-21 07:32:47 EDT: N7QME-2>N7QME: temps g .58 v .60 o 49 e .57 f 40 b 54 w 58 h 55 Stale 4 Low 5 6 8
2021-04-21 07:35:43 EDT: MTHOOD>N7QME: temps 50.000 70.600 39.600 51.600 369.500 369.300 83.200 337.300
2021-04-21 07:39:00 EDT: N7QME-2>N7QME: system phv 13.29 bv 13.30 bc 0.00 bp 0.0 tp 1098 rt -8099
2021-04-21 07:40:06 EDT: N7QME-2>N7QME: Bilge fore 1 0 0 mid 1 0 0 aft 1 0 0
2021-04-21 07:49:38 EDT: MTHOOD>N7QME: hum 39 14 60 10 255 100 193 215
2021-04-21 07:54:15 EDT: N7QME-2>N7QME: hum g 50 v 50 o 77. e 60. f 53. b .65 w 62. h 64 Stale 4 Low 5 6 8
2021-04-21 08:11:45 EDT: N7QME-2>N7QME: Bilge fore 1 0 0 mid 1 0 0 aft 1 0 0
2021-04-21 08:12:27 EDT: N7QME-2>N7QME: dinghy 05:02:01 p 11.60 v 12.82 s auto
2021-04-21 08:30:25 EDT: N7QME-2>N7QME: system phv 13.26 bv 13.27 bc -0.20 bp -2.7 tp 1094 rt -8102
2021-04-21 08:30:46 EDT: MTHOOD>N7QME: temps 49.600 70.400 39.000 51.400 369.500 369.300 83.200 337.300
2021-04-21 08:31:22 EDT: N7QME-2>N7QME: hum g 51 v 52. o 78. e 60 f 55 b .65 w 62. h 64 Stale 4 Low 5 6 8
2021-04-21 08:44:58 EDT: MTHOOD>N7QME: hum 39 15 60 11 255 100 193 215
2021-04-21 08:51:50 EDT: N7QME-2>N7QME: bms B1 13.27 21 0.0 59.7 61.2 0
2021-04-21 09:00:56 EDT: N7QME-2>N7QME: bms B1 13.27 24 0.0 59.9 61.2 0
2021-04-21 09:11:50 EDT: N7QME-2>N7QME: bms B2 13.32 29 0.0 59.7 60.4 0
2021-04-21 09:17:13 EDT: N7QME-2>N7QME: system phv 13.30 bv 13.30 bc 0.50 bp 6.7 tp 1 rt -8099
2021-04-21 09:26:38 EDT: MTHOOD>N7QME: temps 49.200 70.200 38.400 51.200 369.500 369.300 83.200 337.300
2021-04-21 09:30:41 EDT: N7QME-2>N7QME: bms B2 13.32 29 0.1 59.7 60.3 0
2021-04-21 09:31:15 EDT: N7QME-2>N7QME: temps g .56 v 57 o 46 e 57 f 39 b .54 w 57 h 55 Stale 4 Low 5 6 8
2021-04-21 09:40:03 EDT: MTHOOD>N7QME: hum 39 12 61 12 255 100 193 215
2021-04-21 09:41:20 EDT: N7QME-2>N7QME: dinghy 06:33:27 p 11.53 v 12.82 s auto
2021-04-21 09:49:00 EDT: N7QME-2>N7QME: hum g 51. v 51 o 78 e .59 f 60. b .64 w 62 h 63 Stale 4 Low 5 6 8
2021-04-21 09:49:37 EDT: N7QME-2>N7QME: system phv 13.27 bv 13.29 bc 0.00 bp 0.0 tp 1 rt -8099
2021-04-21 10:03:33 EDT: N7QME-2>N7QME: 13.28 62.8 37 13 0.0
< prijasnji
User guide · FAQ · Blog · Diskusijska grupa · Povezivanje sa aprs.fi · AIS stranice · Status servisa · Statistika base · Savjeti na aprs.fi · Tehnicki detalji · API · Izmjena dnevnika · Planirane promjene · Zasluge i zahvale · Uvjeti servisa · iPhone/iPad APRS